sensor_id;sensor_type;location;lat;lon;timestamp;P1;durP1;ratioP1;P2;durP2;ratioP2
20456;SDS011;10387;51.102;6.848;2023-03-04T00:02:22;42.10;;;25.73;;
20456;SDS011;10387;51.102;6.848;2023-03-04T00:04:48;39.43;;;23.57;;
20456;SDS011;10387;51.102;6.848;2023-03-04T00:07:14;40.90;;;24.47;;
20456;SDS011;10387;51.102;6.848;2023-03-04T00:09:46;38.13;;;22.53;;
20456;SDS011;10387;51.102;6.848;2023-03-04T00:12:13;37.40;;;21.17;;
20456;SDS011;10387;51.102;6.848;2023-03-04T00:14:38;37.63;;;21.63;;
20456;SDS011;10387;51.102;6.848;2023-03-04T00:17:08;37.53;;;21.30;;
20456;SDS011;10387;51.102;6.848;2023-03-04T00:19:33;33.67;;;20.30;;
20456;SDS011;10387;51.102;6.848;2023-03-04T00:22:03;31.17;;;19.20;;
20456;SDS011;10387;51.102;6.848;2023-03-04T00:24:29;34.90;;;19.80;;
20456;SDS011;10387;51.102;6.848;2023-03-04T00:26:58;34.53;;;19.97;;
20456;SDS011;10387;51.102;6.848;2023-03-04T00:29:25;31.00;;;19.93;;
20456;SDS011;10387;51.102;6.848;2023-03-04T00:31:52;35.53;;;20.17;;
20456;SDS011;10387;51.102;6.848;2023-03-04T00:34:18;31.40;;;19.00;;
20456;SDS011;10387;51.102;6.848;2023-03-04T00:36:44;34.53;;;19.60;;
20456;SDS011;10387;51.102;6.848;2023-03-04T00:39:11;27.17;;;17.40;;
20456;SDS011;10387;51.102;6.848;2023-03-04T00:41:40;26.53;;;17.13;;
20456;SDS011;10387;51.102;6.848;2023-03-04T00:44:08;29.83;;;16.80;;
20456;SDS011;10387;51.102;6.848;2023-03-04T00:46:43;28.77;;;17.10;;
20456;SDS011;10387;51.102;6.848;2023-03-04T00:49:12;24.47;;;16.03;;
20456;SDS011;10387;51.102;6.848;2023-03-04T00:51:38;32.17;;;16.97;;
20456;SDS011;10387;51.102;6.848;2023-03-04T00:54:04;27.10;;;16.90;;
20456;SDS011;10387;51.102;6.848;2023-03-04T00:56:30;26.53;;;16.37;;
20456;SDS011;10387;51.102;6.848;2023-03-04T00:58:57;23.83;;;15.67;;
20456;SDS011;10387;51.102;6.848;2023-03-04T01:01:25;25.50;;;16.20;;
20456;SDS011;10387;51.102;6.848;2023-03-04T01:03:52;24.30;;;14.93;;
20456;SDS011;10387;51.102;6.848;2023-03-04T01:06:17;22.93;;;14.90;;
20456;SDS011;10387;51.102;6.848;2023-03-04T01:08:43;24.93;;;15.00;;
20456;SDS011;10387;51.102;6.848;2023-03-04T01:11:09;22.80;;;14.67;;
20456;SDS011;10387;51.102;6.848;2023-03-04T01:13:35;23.07;;;13.93;;
20456;SDS011;10387;51.102;6.848;2023-03-04T01:16:01;19.80;;;12.53;;
20456;SDS011;10387;51.102;6.848;2023-03-04T01:18:30;23.13;;;13.77;;
20456;SDS011;10387;51.102;6.848;2023-03-04T01:20:56;21.03;;;12.57;;
20456;SDS011;10387;51.102;6.848;2023-03-04T01:23:22;19.93;;;12.83;;
20456;SDS011;10387;51.102;6.848;2023-03-04T01:25:48;20.07;;;12.00;;
20456;SDS011;10387;51.102;6.848;2023-03-04T01:28:13;22.70;;;12.23;;
20456;SDS011;10387;51.102;6.848;2023-03-04T01:30:39;20.73;;;12.57;;
20456;SDS011;10387;51.102;6.848;2023-03-04T01:33:05;18.80;;;11.10;;
20456;SDS011;10387;51.102;6.848;2023-03-04T01:35:31;17.33;;;11.70;;
20456;SDS011;10387;51.102;6.848;2023-03-04T01:37:57;19.07;;;11.20;;
20456;SDS011;10387;51.102;6.848;2023-03-04T01:40:23;15.93;;;10.13;;
20456;SDS011;10387;51.102;6.848;2023-03-04T01:42:49;17.20;;;9.97;;
20456;SDS011;10387;51.102;6.848;2023-03-04T01:45:17;17.57;;;10.10;;
20456;SDS011;10387;51.102;6.848;2023-03-04T01:47:45;17.10;;;10.67;;
20456;SDS011;10387;51.102;6.848;2023-03-04T01:50:35;16.60;;;11.53;;
20456;SDS011;10387;51.102;6.848;2023-03-04T01:53:01;17.90;;;10.27;;
20456;SDS011;10387;51.102;6.848;2023-03-04T01:55:27;16.03;;;9.43;;
20456;SDS011;10387;51.102;6.848;2023-03-04T01:57:54;15.70;;;9.83;;
20456;SDS011;10387;51.102;6.848;2023-03-04T02:02:58;15.90;;;9.87;;
20456;SDS011;10387;51.102;6.848;2023-03-04T02:05:44;16.80;;;9.10;;
20456;SDS011;10387;51.102;6.848;2023-03-04T02:08:12;18.80;;;9.50;;
20456;SDS011;10387;51.102;6.848;2023-03-04T02:10:40;13.47;;;8.47;;
20456;SDS011;10387;51.102;6.848;2023-03-04T02:13:07;17.20;;;8.57;;
20456;SDS011;10387;51.102;6.848;2023-03-04T02:15:33;16.73;;;8.23;;
20456;SDS011;10387;51.102;6.848;2023-03-04T02:17:59;17.57;;;8.60;;
20456;SDS011;10387;51.102;6.848;2023-03-04T02:20:40;12.83;;;8.37;;
20456;SDS011;10387;51.102;6.848;2023-03-04T02:23:21;15.10;;;7.53;;
20456;SDS011;10387;51.102;6.848;2023-03-04T02:26:28;13.37;;;7.50;;
20456;SDS011;10387;51.102;6.848;2023-03-04T02:28:55;13.73;;;8.40;;
20456;SDS011;10387;51.102;6.848;2023-03-04T02:31:24;13.83;;;7.50;;
20456;SDS011;10387;51.102;6.848;2023-03-04T02:34:01;12.37;;;7.53;;
20456;SDS011;10387;51.102;6.848;2023-03-04T02:36:29;16.67;;;8.53;;
20456;SDS011;10387;51.102;6.848;2023-03-04T02:39:00;13.83;;;8.00;;
20456;SDS011;10387;51.102;6.848;2023-03-04T02:41:31;11.30;;;8.10;;
20456;SDS011;10387;51.102;6.848;2023-03-04T02:43:58;14.90;;;7.73;;
20456;SDS011;10387;51.102;6.848;2023-03-04T02:46:23;15.43;;;8.17;;
20456;SDS011;10387;51.102;6.848;2023-03-04T02:48:49;12.53;;;6.97;;
20456;SDS011;10387;51.102;6.848;2023-03-04T02:51:16;14.53;;;7.77;;
20456;SDS011;10387;51.102;6.848;2023-03-04T02:53:41;11.60;;;6.17;;
20456;SDS011;10387;51.102;6.848;2023-03-04T02:56:07;15.17;;;7.20;;
20456;SDS011;10387;51.102;6.848;2023-03-04T02:58:35;11.20;;;6.07;;
20456;SDS011;10387;51.102;6.848;2023-03-04T03:01:03;12.60;;;6.97;;
20456;SDS011;10387;51.102;6.848;2023-03-04T03:03:30;14.50;;;7.00;;
20456;SDS011;10387;51.102;6.848;2023-03-04T03:05:56;10.77;;;6.43;;
20456;SDS011;10387;51.102;6.848;2023-03-04T03:08:22;12.90;;;6.63;;
20456;SDS011;10387;51.102;6.848;2023-03-04T03:10:48;14.30;;;6.60;;
20456;SDS011;10387;51.102;6.848;2023-03-04T03:13:15;17.53;;;7.57;;
20456;SDS011;10387;51.102;6.848;2023-03-04T03:15:41;14.90;;;7.50;;
20456;SDS011;10387;51.102;6.848;2023-03-04T03:18:08;15.17;;;7.03;;
20456;SDS011;10387;51.102;6.848;2023-03-04T03:20:35;18.37;;;7.60;;
20456;SDS011;10387;51.102;6.848;2023-03-04T03:23:01;12.20;;;7.00;;
20456;SDS011;10387;51.102;6.848;2023-03-04T03:25:27;11.43;;;6.47;;
20456;SDS011;10387;51.102;6.848;2023-03-04T03:27:52;14.03;;;6.50;;
20456;SDS011;10387;51.102;6.848;2023-03-04T03:30:18;12.00;;;6.27;;
20456;SDS011;10387;51.102;6.848;2023-03-04T03:32:44;12.50;;;5.93;;
20456;SDS011;10387;51.102;6.848;2023-03-04T03:35:10;13.67;;;6.63;;
20456;SDS011;10387;51.102;6.848;2023-03-04T03:37:36;15.00;;;6.93;;
20456;SDS011;10387;51.102;6.848;2023-03-04T03:40:02;12.60;;;6.53;;
20456;SDS011;10387;51.102;6.848;2023-03-04T03:42:28;13.50;;;7.80;;
20456;SDS011;10387;51.102;6.848;2023-03-04T03:44:54;13.20;;;6.50;;
20456;SDS011;10387;51.102;6.848;2023-03-04T03:47:20;13.07;;;6.23;;
20456;SDS011;10387;51.102;6.848;2023-03-04T03:49:46;12.67;;;6.03;;
20456;SDS011;10387;51.102;6.848;2023-03-04T03:52:11;10.77;;;6.80;;
20456;SDS011;10387;51.102;6.848;2023-03-04T03:54:37;13.23;;;7.20;;
20456;SDS011;10387;51.102;6.848;2023-03-04T03:57:04;16.73;;;7.57;;
20456;SDS011;10387;51.102;6.848;2023-03-04T03:59:30;17.30;;;8.10;;
20456;SDS011;10387;51.102;6.848;2023-03-04T04:01:55;17.47;;;8.10;;
20456;SDS011;10387;51.102;6.848;2023-03-04T04:04:21;15.43;;;7.57;;
20456;SDS011;10387;51.102;6.848;2023-03-04T04:06:47;15.40;;;7.33;;
20456;SDS011;10387;51.102;6.848;2023-03-04T04:09:12;13.40;;;7.07;;
20456;SDS011;10387;51.102;6.848;2023-03-04T04:11:38;18.60;;;9.67;;
20456;SDS011;10387;51.102;6.848;2023-03-04T04:14:04;34.17;;;16.53;;
20456;SDS011;10387;51.102;6.848;2023-03-04T04:16:30;32.07;;;15.53;;
20456;SDS011;10387;51.102;6.848;2023-03-04T04:18:55;30.37;;;14.20;;
20456;SDS011;10387;51.102;6.848;2023-03-04T04:21:21;27.70;;;13.47;;
20456;SDS011;10387;51.102;6.848;2023-03-04T04:23:47;26.10;;;12.00;;
20456;SDS011;10387;51.102;6.848;2023-03-04T04:26:12;24.03;;;12.50;;
20456;SDS011;10387;51.102;6.848;2023-03-04T04:28:38;29.00;;;13.30;;
20456;SDS011;10387;51.102;6.848;2023-03-04T04:31:07;26.60;;;13.43;;
20456;SDS011;10387;51.102;6.848;2023-03-04T04:33:34;27.53;;;14.80;;
20456;SDS011;10387;51.102;6.848;2023-03-04T04:36:00;28.03;;;14.57;;
20456;SDS011;10387;51.102;6.848;2023-03-04T04:38:26;35.50;;;16.63;;
20456;SDS011;10387;51.102;6.848;2023-03-04T04:40:52;29.30;;;14.97;;
20456;SDS011;10387;51.102;6.848;2023-03-04T04:43:20;24.87;;;13.07;;
20456;SDS011;10387;51.102;6.848;2023-03-04T04:45:46;27.20;;;12.40;;
20456;SDS011;10387;51.102;6.848;2023-03-04T04:48:11;25.80;;;12.13;;
20456;SDS011;10387;51.102;6.848;2023-03-04T04:50:37;23.33;;;11.10;;
20456;SDS011;10387;51.102;6.848;2023-03-04T04:53:03;23.07;;;10.70;;
20456;SDS011;10387;51.102;6.848;2023-03-04T04:55:29;20.30;;;10.77;;
20456;SDS011;10387;51.102;6.848;2023-03-04T04:57:54;24.67;;;10.47;;
20456;SDS011;10387;51.102;6.848;2023-03-04T05:00:20;20.27;;;10.73;;
20456;SDS011;10387;51.102;6.848;2023-03-04T05:02:46;19.10;;;10.70;;
20456;SDS011;10387;51.102;6.848;2023-03-04T05:05:12;22.83;;;9.87;;
20456;SDS011;10387;51.102;6.848;2023-03-04T05:07:37;18.20;;;8.60;;
20456;SDS011;10387;51.102;6.848;2023-03-04T05:10:04;14.73;;;7.53;;
20456;SDS011;10387;51.102;6.848;2023-03-04T05:12:29;14.50;;;6.50;;
20456;SDS011;10387;51.102;6.848;2023-03-04T05:14:55;12.13;;;6.47;;
20456;SDS011;10387;51.102;6.848;2023-03-04T05:17:22;11.20;;;6.27;;
20456;SDS011;10387;51.102;6.848;2023-03-04T05:19:48;15.03;;;7.07;;
20456;SDS011;10387;51.102;6.848;2023-03-04T05:22:14;12.73;;;5.83;;
20456;SDS011;10387;51.102;6.848;2023-03-04T05:24:40;15.90;;;6.37;;
20456;SDS011;10387;51.102;6.848;2023-03-04T05:27:06;14.27;;;5.97;;
20456;SDS011;10387;51.102;6.848;2023-03-04T05:29:31;13.07;;;6.17;;
20456;SDS011;10387;51.102;6.848;2023-03-04T05:31:57;11.83;;;5.83;;
20456;SDS011;10387;51.102;6.848;2023-03-04T05:34:23;10.90;;;5.20;;
20456;SDS011;10387;51.102;6.848;2023-03-04T05:36:48;9.67;;;5.30;;
20456;SDS011;10387;51.102;6.848;2023-03-04T05:39:14;12.97;;;4.90;;
20456;SDS011;10387;51.102;6.848;2023-03-04T05:41:40;9.17;;;4.90;;
20456;SDS011;10387;51.102;6.848;2023-03-04T05:44:05;12.93;;;4.87;;
20456;SDS011;10387;51.102;6.848;2023-03-04T05:46:31;13.73;;;4.90;;
20456;SDS011;10387;51.102;6.848;2023-03-04T05:48:57;13.93;;;5.27;;
20456;SDS011;10387;51.102;6.848;2023-03-04T05:51:22;10.57;;;4.67;;
20456;SDS011;10387;51.102;6.848;2023-03-04T05:53:48;12.50;;;5.30;;
20456;SDS011;10387;51.102;6.848;2023-03-04T06:40:11;7.13;;;3.63;;
20456;SDS011;10387;51.102;6.848;2023-03-04T06:42:37;13.10;;;4.60;;
20456;SDS011;10387;51.102;6.848;2023-03-04T06:45:04;10.97;;;5.53;;
20456;SDS011;10387;51.102;6.848;2023-03-04T06:47:30;12.07;;;5.20;;
20456;SDS011;10387;51.102;6.848;2023-03-04T06:49:56;9.67;;;3.90;;
20456;SDS011;10387;51.102;6.848;2023-03-04T06:52:22;7.40;;;4.63;;
20456;SDS011;10387;51.102;6.848;2023-03-04T06:54:47;11.80;;;5.47;;
20456;SDS011;10387;51.102;6.848;2023-03-04T06:57:13;14.03;;;6.27;;
20456;SDS011;10387;51.102;6.848;2023-03-04T06:59:39;14.47;;;5.43;;
20456;SDS011;10387;51.102;6.848;2023-03-04T07:02:05;9.37;;;5.83;;
20456;SDS011;10387;51.102;6.848;2023-03-04T07:04:31;11.50;;;4.80;;
20456;SDS011;10387;51.102;6.848;2023-03-04T07:06:59;10.17;;;4.70;;
20456;SDS011;10387;51.102;6.848;2023-03-04T07:09:25;11.97;;;5.30;;
20456;SDS011;10387;51.102;6.848;2023-03-04T07:11:53;7.10;;;4.47;;
20456;SDS011;10387;51.102;6.848;2023-03-04T07:14:18;11.93;;;5.37;;
20456;SDS011;10387;51.102;6.848;2023-03-04T07:16:44;9.50;;;4.37;;
20456;SDS011;10387;51.102;6.848;2023-03-04T07:19:09;6.93;;;4.47;;
20456;SDS011;10387;51.102;6.848;2023-03-04T07:21:35;10.77;;;4.43;;
20456;SDS011;10387;51.102;6.848;2023-03-04T07:24:02;9.70;;;4.80;;
20456;SDS011;10387;51.102;6.848;2023-03-04T07:26:28;8.93;;;4.67;;
20456;SDS011;10387;51.102;6.848;2023-03-04T07:28:53;10.83;;;4.87;;
20456;SDS011;10387;51.102;6.848;2023-03-04T07:31:23;7.07;;;4.20;;
20456;SDS011;10387;51.102;6.848;2023-03-04T07:33:54;8.37;;;4.53;;
20456;SDS011;10387;51.102;6.848;2023-03-04T07:36:22;10.97;;;4.77;;
20456;SDS011;10387;51.102;6.848;2023-03-04T07:38:48;10.57;;;4.07;;
20456;SDS011;10387;51.102;6.848;2023-03-04T07:41:16;9.57;;;4.30;;
20456;SDS011;10387;51.102;6.848;2023-03-04T07:43:42;6.87;;;3.83;;
20456;SDS011;10387;51.102;6.848;2023-03-04T07:46:08;13.60;;;3.90;;
20456;SDS011;10387;51.102;6.848;2023-03-04T07:48:34;9.33;;;3.70;;
20456;SDS011;10387;51.102;6.848;2023-03-04T07:51:23;8.77;;;4.60;;
20456;SDS011;10387;51.102;6.848;2023-03-04T07:53:49;7.93;;;4.40;;
20456;SDS011;10387;51.102;6.848;2023-03-04T07:56:17;7.27;;;4.70;;
20456;SDS011;10387;51.102;6.848;2023-03-04T07:58:45;10.07;;;3.93;;
20456;SDS011;10387;51.102;6.848;2023-03-04T08:01:12;9.77;;;4.20;;
20456;SDS011;10387;51.102;6.848;2023-03-04T08:03:46;7.07;;;4.10;;
20456;SDS011;10387;51.102;6.848;2023-03-04T08:06:13;8.77;;;4.17;;
20456;SDS011;10387;51.102;6.848;2023-03-04T08:08:40;7.67;;;4.53;;
20456;SDS011;10387;51.102;6.848;2023-03-04T08:11:11;8.27;;;4.13;;
20456;SDS011;10387;51.102;6.848;2023-03-04T08:13:38;6.90;;;3.10;;
20456;SDS011;10387;51.102;6.848;2023-03-04T08:16:04;8.13;;;3.80;;
20456;SDS011;10387;51.102;6.848;2023-03-04T08:18:30;8.73;;;4.10;;
20456;SDS011;10387;51.102;6.848;2023-03-04T08:20:56;10.90;;;4.87;;
20456;SDS011;10387;51.102;6.848;2023-03-04T08:23:22;8.40;;;4.87;;
20456;SDS011;10387;51.102;6.848;2023-03-04T08:25:47;6.47;;;4.23;;
20456;SDS011;10387;51.102;6.848;2023-03-04T08:28:14;6.80;;;3.67;;
20456;SDS011;10387;51.102;6.848;2023-03-04T08:30:39;5.90;;;3.67;;
20456;SDS011;10387;51.102;6.848;2023-03-04T08:33:06;8.70;;;3.67;;
20456;SDS011;10387;51.102;6.848;2023-03-04T08:35:32;8.47;;;4.57;;
20456;SDS011;10387;51.102;6.848;2023-03-04T08:38:01;9.20;;;3.80;;
20456;SDS011;10387;51.102;6.848;2023-03-04T08:40:27;7.27;;;3.93;;
20456;SDS011;10387;51.102;6.848;2023-03-04T08:42:52;8.53;;;4.03;;
20456;SDS011;10387;51.102;6.848;2023-03-04T08:45:18;8.70;;;4.27;;
20456;SDS011;10387;51.102;6.848;2023-03-04T08:47:43;8.10;;;4.23;;
20456;SDS011;10387;51.102;6.848;2023-03-04T08:50:09;5.60;;;3.60;;
20456;SDS011;10387;51.102;6.848;2023-03-04T08:52:35;8.57;;;3.00;;
20456;SDS011;10387;51.102;6.848;2023-03-04T08:55:01;6.57;;;3.50;;
20456;SDS011;10387;51.102;6.848;2023-03-04T08:57:27;4.97;;;4.07;;
20456;SDS011;10387;51.102;6.848;2023-03-04T08:59:53;7.83;;;3.43;;
20456;SDS011;10387;51.102;6.848;2023-03-04T09:02:19;11.47;;;3.77;;
20456;SDS011;10387;51.102;6.848;2023-03-04T09:04:44;5.70;;;4.10;;
20456;SDS011;10387;51.102;6.848;2023-03-04T09:07:10;8.53;;;5.27;;
20456;SDS011;10387;51.102;6.848;2023-03-04T09:09:36;7.87;;;3.43;;
20456;SDS011;10387;51.102;6.848;2023-03-04T09:12:02;7.90;;;3.67;;
20456;SDS011;10387;51.102;6.848;2023-03-04T09:14:28;7.33;;;4.03;;
20456;SDS011;10387;51.102;6.848;2023-03-04T09:16:54;5.57;;;3.23;;
20456;SDS011;10387;51.102;6.848;2023-03-04T09:19:19;7.33;;;2.93;;
20456;SDS011;10387;51.102;6.848;2023-03-04T09:21:45;5.40;;;2.87;;
20456;SDS011;10387;51.102;6.848;2023-03-04T09:24:11;6.60;;;3.10;;
20456;SDS011;10387;51.102;6.848;2023-03-04T09:26:36;4.00;;;3.13;;
20456;SDS011;10387;51.102;6.848;2023-03-04T09:29:02;8.60;;;3.00;;
20456;SDS011;10387;51.102;6.848;2023-03-04T09:31:28;5.10;;;3.27;;
20456;SDS011;10387;51.102;6.848;2023-03-04T09:33:55;8.63;;;4.00;;
20456;SDS011;10387;51.102;6.848;2023-03-04T09:36:22;7.53;;;3.03;;
20456;SDS011;10387;51.102;6.848;2023-03-04T09:38:48;5.60;;;3.47;;
20456;SDS011;10387;51.102;6.848;2023-03-04T09:41:14;7.73;;;3.23;;
20456;SDS011;10387;51.102;6.848;2023-03-04T09:43:46;7.97;;;4.80;;
20456;SDS011;10387;51.102;6.848;2023-03-04T09:46:15;7.90;;;3.90;;
20456;SDS011;10387;51.102;6.848;2023-03-04T09:49:01;6.97;;;3.37;;
20456;SDS011;10387;51.102;6.848;2023-03-04T09:56:56;4.90;;;3.10;;
20456;SDS011;10387;51.102;6.848;2023-03-04T09:59:45;4.90;;;3.20;;
20456;SDS011;10387;51.102;6.848;2023-03-04T10:02:27;6.20;;;3.53;;
20456;SDS011;10387;51.102;6.848;2023-03-04T10:05:04;5.03;;;3.47;;
20456;SDS011;10387;51.102;6.848;2023-03-04T10:07:38;7.00;;;3.50;;
20456;SDS011;10387;51.102;6.848;2023-03-04T10:12:57;10.40;;;4.63;;
20456;SDS011;10387;51.102;6.848;2023-03-04T10:15:41;8.37;;;4.30;;
20456;SDS011;10387;51.102;6.848;2023-03-04T10:18:15;8.03;;;5.93;;
20456;SDS011;10387;51.102;6.848;2023-03-04T10:23:26;4.90;;;3.03;;
20456;SDS011;10387;51.102;6.848;2023-03-04T10:25:55;5.97;;;2.90;;
20456;SDS011;10387;51.102;6.848;2023-03-04T10:28:24;4.87;;;2.80;;
20456;SDS011;10387;51.102;6.848;2023-03-04T10:33:30;4.43;;;2.67;;
20456;SDS011;10387;51.102;6.848;2023-03-04T10:36:12;3.80;;;2.60;;
20456;SDS011;10387;51.102;6.848;2023-03-04T10:39:05;6.17;;;2.90;;
20456;SDS011;10387;51.102;6.848;2023-03-04T10:41:32;7.13;;;2.87;;
20456;SDS011;10387;51.102;6.848;2023-03-04T10:46:36;4.23;;;2.30;;
20456;SDS011;10387;51.102;6.848;2023-03-04T10:49:05;4.83;;;2.60;;
20456;SDS011;10387;51.102;6.848;2023-03-04T10:51:38;5.47;;;2.33;;
20456;SDS011;10387;51.102;6.848;2023-03-04T10:57:01;4.33;;;2.13;;
20456;SDS011;10387;51.102;6.848;2023-03-04T11:07:43;4.53;;;2.87;;
20456;SDS011;10387;51.102;6.848;2023-03-04T11:12:46;3.47;;;2.93;;
20456;SDS011;10387;51.102;6.848;2023-03-04T11:15:18;6.80;;;2.50;;
20456;SDS011;10387;51.102;6.848;2023-03-04T11:17:52;4.53;;;2.80;;
20456;SDS011;10387;51.102;6.848;2023-03-04T11:22:53;2.30;;;2.10;;
20456;SDS011;10387;51.102;6.848;2023-03-04T11:25:28;4.30;;;2.37;;
20456;SDS011;10387;51.102;6.848;2023-03-04T11:30:57;2.43;;;1.53;;
20456;SDS011;10387;51.102;6.848;2023-03-04T11:38:52;3.73;;;2.03;;
20456;SDS011;10387;51.102;6.848;2023-03-04T11:41:32;4.53;;;2.40;;
20456;SDS011;10387;51.102;6.848;2023-03-04T11:44:06;7.37;;;2.63;;
20456;SDS011;10387;51.102;6.848;2023-03-04T12:06:42;2.70;;;1.93;;
20456;SDS011;10387;51.102;6.848;2023-03-04T12:14:59;6.33;;;2.17;;
20456;SDS011;10387;51.102;6.848;2023-03-04T12:22:46;5.87;;;2.60;;
20456;SDS011;10387;51.102;6.848;2023-03-04T12:28:53;3.67;;;1.80;;
20456;SDS011;10387;51.102;6.848;2023-03-04T12:31:33;4.80;;;2.00;;
20456;SDS011;10387;51.102;6.848;2023-03-04T12:45:14;3.27;;;2.20;;
20456;SDS011;10387;51.102;6.848;2023-03-04T12:56:38;3.27;;;1.70;;
20456;SDS011;10387;51.102;6.848;2023-03-04T12:59:19;2.77;;;1.93;;
20456;SDS011;10387;51.102;6.848;2023-03-04T13:04:40;2.93;;;1.57;;
20456;SDS011;10387;51.102;6.848;2023-03-04T13:07:20;2.53;;;1.70;;
20456;SDS011;10387;51.102;6.848;2023-03-04T13:10:12;2.00;;;1.67;;
20456;SDS011;10387;51.102;6.848;2023-03-04T13:12:54;2.43;;;1.80;;
20456;SDS011;10387;51.102;6.848;2023-03-04T13:17:48;2.23;;;1.93;;
20456;SDS011;10387;51.102;6.848;2023-03-04T13:20:21;3.13;;;1.73;;
20456;SDS011;10387;51.102;6.848;2023-03-04T13:25:39;1.70;;;1.60;;
20456;SDS011;10387;51.102;6.848;2023-03-04T13:28:35;1.90;;;1.17;;
20456;SDS011;10387;51.102;6.848;2023-03-04T13:31:13;2.13;;;1.93;;
20456;SDS011;10387;51.102;6.848;2023-03-04T13:34:00;1.70;;;1.60;;
20456;SDS011;10387;51.102;6.848;2023-03-04T13:38:57;1.70;;;1.60;;
20456;SDS011;10387;51.102;6.848;2023-03-04T13:41:31;2.17;;;1.70;;
20456;SDS011;10387;51.102;6.848;2023-03-04T13:47:25;3.00;;;1.67;;
20456;SDS011;10387;51.102;6.848;2023-03-04T13:50:18;2.83;;;1.80;;
20456;SDS011;10387;51.102;6.848;2023-03-04T13:52:54;3.33;;;2.00;;
20456;SDS011;10387;51.102;6.848;2023-03-04T13:55:58;2.07;;;1.87;;
20456;SDS011;10387;51.102;6.848;2023-03-04T13:58:29;2.13;;;1.57;;
20456;SDS011;10387;51.102;6.848;2023-03-04T14:00:55;2.80;;;2.20;;
20456;SDS011;10387;51.102;6.848;2023-03-04T14:03:22;2.43;;;2.17;;
20456;SDS011;10387;51.102;6.848;2023-03-04T14:06:09;4.57;;;3.17;;
20456;SDS011;10387;51.102;6.848;2023-03-04T14:08:39;3.67;;;2.70;;
20456;SDS011;10387;51.102;6.848;2023-03-04T14:11:09;4.53;;;3.13;;
20456;SDS011;10387;51.102;6.848;2023-03-04T14:13:39;3.10;;;2.80;;
20456;SDS011;10387;51.102;6.848;2023-03-04T14:16:07;2.93;;;2.20;;
20456;SDS011;10387;51.102;6.848;2023-03-04T14:18:33;3.83;;;2.83;;
20456;SDS011;10387;51.102;6.848;2023-03-04T14:20:59;2.70;;;2.50;;
20456;SDS011;10387;51.102;6.848;2023-03-04T14:23:26;4.07;;;2.67;;
20456;SDS011;10387;51.102;6.848;2023-03-04T14:26:04;2.73;;;2.33;;
20456;SDS011;10387;51.102;6.848;2023-03-04T14:28:56;2.10;;;1.90;;
20456;SDS011;10387;51.102;6.848;2023-03-04T14:31:25;3.80;;;2.03;;
20456;SDS011;10387;51.102;6.848;2023-03-04T14:33:54;2.83;;;2.17;;
20456;SDS011;10387;51.102;6.848;2023-03-04T14:36:26;2.40;;;1.60;;
20456;SDS011;10387;51.102;6.848;2023-03-04T14:38:55;2.83;;;1.67;;
20456;SDS011;10387;51.102;6.848;2023-03-04T14:43:59;5.03;;;3.30;;
20456;SDS011;10387;51.102;6.848;2023-03-04T14:46:32;3.80;;;2.90;;
20456;SDS011;10387;51.102;6.848;2023-03-04T14:49:04;1.97;;;1.80;;
20456;SDS011;10387;51.102;6.848;2023-03-04T14:51:32;3.43;;;2.37;;
20456;SDS011;10387;51.102;6.848;2023-03-04T14:54:26;2.60;;;2.30;;
20456;SDS011;10387;51.102;6.848;2023-03-04T14:56:52;2.63;;;2.10;;
20456;SDS011;10387;51.102;6.848;2023-03-04T14:59:26;3.77;;;2.33;;
20456;SDS011;10387;51.102;6.848;2023-03-04T15:01:53;2.20;;;2.00;;
20456;SDS011;10387;51.102;6.848;2023-03-04T15:04:40;2.27;;;2.07;;
20456;SDS011;10387;51.102;6.848;2023-03-04T15:07:11;2.93;;;2.50;;
20456;SDS011;10387;51.102;6.848;2023-03-04T15:09:53;3.20;;;2.67;;
20456;SDS011;10387;51.102;6.848;2023-03-04T15:12:23;2.87;;;2.67;;
20456;SDS011;10387;51.102;6.848;2023-03-04T15:15:03;3.07;;;2.70;;
20456;SDS011;10387;51.102;6.848;2023-03-04T15:17:56;3.00;;;2.60;;
20456;SDS011;10387;51.102;6.848;2023-03-04T15:20:27;3.90;;;2.90;;
20456;SDS011;10387;51.102;6.848;2023-03-04T15:25:19;3.30;;;3.00;;
20456;SDS011;10387;51.102;6.848;2023-03-04T15:27:45;4.73;;;3.00;;
20456;SDS011;10387;51.102;6.848;2023-03-04T15:30:31;4.03;;;2.70;;
20456;SDS011;10387;51.102;6.848;2023-03-04T15:32:58;3.73;;;3.10;;
20456;SDS011;10387;51.102;6.848;2023-03-04T15:35:29;3.60;;;3.30;;
20456;SDS011;10387;51.102;6.848;2023-03-04T15:37:59;4.77;;;3.30;;
20456;SDS011;10387;51.102;6.848;2023-03-04T15:43:06;4.27;;;2.90;;
20456;SDS011;10387;51.102;6.848;2023-03-04T15:45:37;6.97;;;3.43;;
20456;SDS011;10387;51.102;6.848;2023-03-04T15:48:10;3.53;;;3.17;;
20456;SDS011;10387;51.102;6.848;2023-03-04T15:50:39;5.43;;;3.50;;
20456;SDS011;10387;51.102;6.848;2023-03-04T15:53:19;4.40;;;4.00;;
20456;SDS011;10387;51.102;6.848;2023-03-04T15:55:51;3.90;;;3.50;;
20456;SDS011;10387;51.102;6.848;2023-03-04T15:58:17;5.07;;;3.40;;
20456;SDS011;10387;51.102;6.848;2023-03-04T16:00:42;4.17;;;3.70;;
20456;SDS011;10387;51.102;6.848;2023-03-04T16:03:11;5.07;;;3.37;;
20456;SDS011;10387;51.102;6.848;2023-03-04T16:05:39;3.97;;;3.40;;
20456;SDS011;10387;51.102;6.848;2023-03-04T16:08:05;3.77;;;3.33;;
20456;SDS011;10387;51.102;6.848;2023-03-04T16:10:34;3.90;;;3.60;;
20456;SDS011;10387;51.102;6.848;2023-03-04T16:12:59;4.40;;;3.50;;
20456;SDS011;10387;51.102;6.848;2023-03-04T16:15:26;3.90;;;3.47;;
20456;SDS011;10387;51.102;6.848;2023-03-04T16:17:53;5.53;;;3.70;;
20456;SDS011;10387;51.102;6.848;2023-03-04T16:20:23;6.40;;;4.97;;
20456;SDS011;10387;51.102;6.848;2023-03-04T16:22:54;6.73;;;6.03;;
20456;SDS011;10387;51.102;6.848;2023-03-04T16:25:22;5.70;;;5.07;;
20456;SDS011;10387;51.102;6.848;2023-03-04T16:27:49;22.30;;;20.00;;
20456;SDS011;10387;51.102;6.848;2023-03-04T16:30:18;8.07;;;6.90;;
20456;SDS011;10387;51.102;6.848;2023-03-04T16:32:46;9.47;;;7.60;;
20456;SDS011;10387;51.102;6.848;2023-03-04T16:35:12;7.90;;;5.97;;
20456;SDS011;10387;51.102;6.848;2023-03-04T16:37:39;6.07;;;5.57;;
20456;SDS011;10387;51.102;6.848;2023-03-04T16:40:06;6.40;;;5.70;;
20456;SDS011;10387;51.102;6.848;2023-03-04T16:42:35;6.10;;;4.90;;
20456;SDS011;10387;51.102;6.848;2023-03-04T16:45:00;7.63;;;5.10;;
20456;SDS011;10387;51.102;6.848;2023-03-04T16:47:26;4.17;;;3.13;;
20456;SDS011;10387;51.102;6.848;2023-03-04T16:49:52;9.70;;;6.47;;
20456;SDS011;10387;51.102;6.848;2023-03-04T16:52:24;14.97;;;8.20;;
20456;SDS011;10387;51.102;6.848;2023-03-04T16:54:55;12.30;;;7.03;;
20456;SDS011;10387;51.102;6.848;2023-03-04T16:57:21;14.17;;;8.50;;
20456;SDS011;10387;51.102;6.848;2023-03-04T16:59:47;11.53;;;7.60;;
20456;SDS011;10387;51.102;6.848;2023-03-04T17:02:17;13.20;;;8.50;;
20456;SDS011;10387;51.102;6.848;2023-03-04T17:04:45;9.03;;;4.93;;
20456;SDS011;10387;51.102;6.848;2023-03-04T17:07:12;10.07;;;5.17;;
20456;SDS011;10387;51.102;6.848;2023-03-04T17:09:38;8.90;;;4.97;;
20456;SDS011;10387;51.102;6.848;2023-03-04T17:12:05;8.30;;;4.47;;
20456;SDS011;10387;51.102;6.848;2023-03-04T17:14:32;5.57;;;4.13;;
20456;SDS011;10387;51.102;6.848;2023-03-04T17:16:57;8.43;;;4.47;;
20456;SDS011;10387;51.102;6.848;2023-03-04T17:19:24;11.83;;;5.43;;
20456;SDS011;10387;51.102;6.848;2023-03-04T17:21:49;8.27;;;4.57;;
20456;SDS011;10387;51.102;6.848;2023-03-04T17:24:15;7.93;;;4.33;;
20456;SDS011;10387;51.102;6.848;2023-03-04T17:26:41;9.13;;;4.03;;
20456;SDS011;10387;51.102;6.848;2023-03-04T17:29:07;9.10;;;3.70;;
20456;SDS011;10387;51.102;6.848;2023-03-04T17:31:34;8.13;;;3.80;;
20456;SDS011;10387;51.102;6.848;2023-03-04T17:34:00;5.73;;;3.67;;